createdAt,value
2017-03-17T00:00:16.809Z,1010.87
2017-03-17T00:00:57.341Z,1010.86
2017-03-17T00:01:37.872Z,1010.85
2017-03-17T00:02:18.411Z,1010.81
2017-03-17T00:02:58.941Z,1010.81
2017-03-17T00:03:39.475Z,1010.81
2017-03-17T00:04:20.014Z,1010.79
2017-03-17T00:05:00.546Z,1010.78
2017-03-17T00:05:41.081Z,1010.8
2017-03-17T00:06:21.612Z,1010.81
2017-03-17T00:07:02.145Z,1010.78
2017-03-17T00:07:42.679Z,1010.74
2017-03-17T00:08:23.215Z,1010.73
2017-03-17T00:09:03.749Z,1010.72
2017-03-17T00:09:44.281Z,1010.76
2017-03-17T00:10:24.809Z,1010.72
2017-03-17T00:11:05.342Z,1010.71
2017-03-17T00:11:45.860Z,1010.67
2017-03-17T00:12:26.397Z,1010.72
2017-03-17T00:13:06.930Z,1010.7
2017-03-17T00:13:47.480Z,1010.71
2017-03-17T00:14:27.998Z,1010.66
2017-03-17T00:15:08.535Z,1010.65
2017-03-17T00:15:49.070Z,1010.65
2017-03-17T00:16:29.604Z,1010.7
2017-03-17T00:17:10.136Z,1010.7
2017-03-17T00:17:50.670Z,1010.68
2017-03-17T00:18:31.202Z,1010.69
2017-03-17T00:19:11.737Z,1010.71
2017-03-17T00:19:52.274Z,1010.69
2017-03-17T00:20:32.808Z,1010.7
2017-03-17T00:21:13.343Z,1010.71
2017-03-17T00:21:53.872Z,1010.72
2017-03-17T00:22:34.404Z,1010.68
2017-03-17T00:23:14.940Z,1010.63
2017-03-17T00:23:55.477Z,1010.67
2017-03-17T00:24:36.010Z,1010.7
2017-03-17T00:25:16.623Z,1010.67
2017-03-17T00:25:57.132Z,1010.62
2017-03-17T00:26:37.666Z,1010.65
2017-03-17T00:27:18.197Z,1010.64
2017-03-17T00:27:58.729Z,1010.62
2017-03-17T00:28:39.266Z,1010.59
2017-03-17T00:29:19.871Z,1010.66
2017-03-17T00:30:00.417Z,1010.61
2017-03-17T00:30:40.955Z,1010.6
2017-03-17T00:31:21.483Z,1010.52
2017-03-17T00:32:02.015Z,1010.55
2017-03-17T00:32:42.549Z,1010.54
2017-03-17T00:33:23.086Z,1010.52
2017-03-17T00:34:03.622Z,1010.5
2017-03-17T00:34:44.156Z,1010.51
2017-03-17T00:35:24.711Z,1010.49
2017-03-17T00:36:05.215Z,1010.48
2017-03-17T00:36:45.753Z,1010.51
2017-03-17T00:37:26.288Z,1010.48
2017-03-17T00:38:06.818Z,1010.48
2017-03-17T00:38:47.347Z,1010.45
2017-03-17T00:39:27.877Z,1010.42
2017-03-17T00:40:08.413Z,1010.42
2017-03-17T00:40:48.948Z,1010.42
2017-03-17T00:41:29.485Z,1010.47
2017-03-17T00:42:10.019Z,1010.45
2017-03-17T00:42:50.549Z,1010.42
2017-03-17T00:43:31.090Z,1010.38
2017-03-17T00:44:11.630Z,1010.42
2017-03-17T00:44:52.165Z,1010.4
2017-03-17T00:45:32.699Z,1010.37
2017-03-17T00:46:13.237Z,1010.36
2017-03-17T00:46:53.772Z,1010.37
2017-03-17T00:47:34.304Z,1010.32
2017-03-17T00:48:14.845Z,1010.31
2017-03-17T00:48:55.382Z,1010.34
2017-03-17T00:49:35.913Z,1010.25
2017-03-17T00:50:16.448Z,1010.26
2017-03-17T00:50:56.983Z,1010.24
2017-03-17T00:51:37.565Z,1010.26
2017-03-17T00:52:18.096Z,1010.22
2017-03-17T00:52:58.666Z,1010.22
2017-03-17T00:53:39.204Z,1010.22
2017-03-17T00:54:19.739Z,1010.23
2017-03-17T00:55:00.260Z,1010.23
2017-03-17T00:55:40.803Z,1010.22
2017-03-17T00:56:21.321Z,1010.23
2017-03-17T00:57:01.853Z,1010.21
2017-03-17T00:57:42.389Z,1010.18
2017-03-17T00:58:22.915Z,1010.18
2017-03-17T00:59:03.446Z,1010.11
2017-03-17T00:59:43.978Z,1010.18
2017-03-17T01:00:24.510Z,1010.16
2017-03-17T01:01:05.041Z,1010.19
2017-03-17T01:01:45.569Z,1010.18
2017-03-17T01:02:26.103Z,1010.12
2017-03-17T01:03:06.632Z,1010.11
2017-03-17T01:03:47.165Z,1010.11
2017-03-17T01:04:27.701Z,1010.09
2017-03-17T01:05:08.228Z,1010.1
2017-03-17T01:05:48.760Z,1010.08
2017-03-17T01:06:29.283Z,1010.08
2017-03-17T01:07:09.837Z,1010.06
2017-03-17T01:07:50.372Z,1010.01
2017-03-17T01:08:30.906Z,1010.01
2017-03-17T01:09:11.448Z,1010
2017-03-17T01:09:51.974Z,1010
2017-03-17T01:10:32.506Z,1009.95
2017-03-17T01:11:13.039Z,1009.98
2017-03-17T01:11:53.570Z,1009.99
2017-03-17T01:12:34.101Z,1009.94
2017-03-17T01:13:14.632Z,1009.93
2017-03-17T01:13:55.240Z,1009.93
2017-03-17T01:14:35.775Z,1009.95
2017-03-17T01:15:16.304Z,1009.95
2017-03-17T01:15:56.836Z,1009.95
2017-03-17T01:16:37.359Z,1009.94
2017-03-17T01:17:17.907Z,1009.98
2017-03-17T01:17:58.437Z,1009.97
2017-03-17T01:18:38.968Z,1009.96
2017-03-17T01:19:19.506Z,1009.95
2017-03-17T01:20:00.029Z,1010
2017-03-17T01:20:40.561Z,1009.96
2017-03-17T01:21:21.098Z,1009.97
2017-03-17T01:22:01.636Z,1009.99
2017-03-17T01:22:42.172Z,1010
2017-03-17T01:23:22.706Z,1009.96
2017-03-17T01:24:03.246Z,1009.98
2017-03-17T01:24:43.770Z,1009.98
2017-03-17T01:25:24.308Z,1009.96
2017-03-17T01:26:04.834Z,1009.97
2017-03-17T01:26:45.370Z,1009.96
2017-03-17T01:27:25.903Z,1009.99
2017-03-17T01:28:06.433Z,1009.93
2017-03-17T01:28:47.026Z,1009.94
2017-03-17T01:29:27.501Z,1009.92
2017-03-17T01:30:08.034Z,1009.91
2017-03-17T01:30:48.571Z,1009.93
2017-03-17T01:31:29.109Z,1009.87
2017-03-17T01:32:09.644Z,1009.89
2017-03-17T01:32:50.173Z,1009.86
2017-03-17T01:33:30.708Z,1009.88
2017-03-17T01:34:11.245Z,1009.91
2017-03-17T01:34:51.780Z,1009.93
2017-03-17T01:35:32.314Z,1009.89
2017-03-17T01:36:12.839Z,1009.85
2017-03-17T01:36:53.378Z,1009.87
2017-03-17T01:37:33.904Z,1009.87
2017-03-17T01:38:14.437Z,1009.82
2017-03-17T01:38:54.981Z,1009.85
2017-03-17T01:39:35.515Z,1009.88
2017-03-17T01:40:16.045Z,1009.87
2017-03-17T01:40:56.582Z,1009.83
2017-03-17T01:41:37.116Z,1009.78
2017-03-17T01:42:17.652Z,1009.82
2017-03-17T01:42:58.188Z,1009.85
2017-03-17T01:43:38.725Z,1009.79
2017-03-17T01:44:19.254Z,1009.84
2017-03-17T01:44:59.780Z,1009.82
2017-03-17T01:45:40.311Z,1009.81
2017-03-17T01:46:20.843Z,1009.8
2017-03-17T01:47:01.378Z,1009.78
2017-03-17T01:47:41.910Z,1009.83
2017-03-17T01:48:22.435Z,1009.79
2017-03-17T01:49:02.969Z,1009.75
2017-03-17T01:49:43.508Z,1009.73
2017-03-17T01:50:24.043Z,1009.76
2017-03-17T01:51:04.591Z,1009.8
2017-03-17T01:51:45.124Z,1009.82
2017-03-17T01:52:25.649Z,1009.8
2017-03-17T01:53:06.180Z,1009.83
2017-03-17T01:53:46.710Z,1009.85
2017-03-17T01:54:27.244Z,1009.78
2017-03-17T01:55:07.779Z,1009.78
2017-03-17T01:55:48.304Z,1009.77
2017-03-17T01:56:28.834Z,1009.8
2017-03-17T01:57:09.368Z,1009.77
2017-03-17T01:57:49.901Z,1009.75
2017-03-17T01:58:30.441Z,1009.81
2017-03-17T01:59:10.988Z,1009.78
2017-03-17T01:59:51.513Z,1009.8
2017-03-17T02:00:32.057Z,1009.72
2017-03-17T02:01:12.589Z,1009.7
2017-03-17T02:01:53.132Z,1009.64
2017-03-17T02:02:33.651Z,1009.69
2017-03-17T02:03:14.185Z,1009.68
2017-03-17T02:03:54.718Z,1009.67
2017-03-17T02:04:35.252Z,1009.67
2017-03-17T02:05:15.781Z,1009.69
2017-03-17T02:05:56.316Z,1009.65
2017-03-17T02:06:36.852Z,1009.65
2017-03-17T02:07:17.378Z,1009.64
2017-03-17T02:07:57.910Z,1009.62
2017-03-17T02:08:38.440Z,1009.62
2017-03-17T02:09:18.971Z,1009.61
2017-03-17T02:09:59.510Z,1009.58
2017-03-17T02:10:40.060Z,1009.59
2017-03-17T02:11:20.599Z,1009.62
2017-03-17T02:12:01.135Z,1009.61
2017-03-17T02:12:41.667Z,1009.63
2017-03-17T02:13:22.203Z,1009.59
2017-03-17T02:14:02.729Z,1009.56
2017-03-17T02:14:43.266Z,1009.56
2017-03-17T02:15:23.823Z,1009.58
2017-03-17T02:16:04.332Z,1009.61
2017-03-17T02:16:44.865Z,1009.57
2017-03-17T02:17:25.398Z,1009.58
2017-03-17T02:18:05.926Z,1009.57
2017-03-17T02:18:46.464Z,1009.59
2017-03-17T02:19:27.006Z,1009.56
2017-03-17T02:20:07.563Z,1009.58
2017-03-17T02:20:48.099Z,1009.56
2017-03-17T02:21:28.634Z,1009.55
2017-03-17T02:22:09.167Z,1009.5
2017-03-17T02:22:49.699Z,1009.54
2017-03-17T02:23:30.232Z,1009.52
2017-03-17T02:24:10.768Z,1009.51
2017-03-17T02:24:51.301Z,1009.46
2017-03-17T02:25:31.835Z,1009.44
2017-03-17T02:26:12.364Z,1009.4
2017-03-17T02:26:52.897Z,1009.4
2017-03-17T02:27:33.432Z,1009.44
2017-03-17T02:28:13.981Z,1009.45
2017-03-17T02:28:54.520Z,1009.49
2017-03-17T02:29:35.051Z,1009.44
2017-03-17T02:30:15.579Z,1009.44
2017-03-17T02:30:56.117Z,1009.44
2017-03-17T02:31:36.651Z,1009.36
2017-03-17T02:32:17.176Z,1009.39
2017-03-17T02:32:57.709Z,1009.41
2017-03-17T02:33:38.241Z,1009.39
2017-03-17T02:34:18.772Z,1009.4
2017-03-17T02:34:59.308Z,1009.36
2017-03-17T02:35:39.839Z,1009.34
2017-03-17T02:36:20.371Z,1009.33
2017-03-17T02:37:00.901Z,1009.33
2017-03-17T02:37:41.433Z,1009.39
2017-03-17T02:38:21.968Z,1009.4
2017-03-17T02:39:02.502Z,1009.36
2017-03-17T02:39:43.034Z,1009.37
2017-03-17T02:40:23.568Z,1009.41
2017-03-17T02:41:04.091Z,1009.38
2017-03-17T02:41:44.627Z,1009.34
2017-03-17T02:42:25.158Z,1009.31
2017-03-17T02:43:05.691Z,1009.33
2017-03-17T02:43:46.223Z,1009.31
2017-03-17T02:44:26.758Z,1009.33
2017-03-17T02:45:07.287Z,1009.28
2017-03-17T02:45:47.818Z,1009.3
2017-03-17T02:46:28.354Z,1009.3
2017-03-17T02:47:08.887Z,1009.33
2017-03-17T02:47:49.418Z,1009.34
2017-03-17T02:48:29.953Z,1009.34
2017-03-17T02:49:10.487Z,1009.3
2017-03-17T02:49:51.009Z,1009.31
2017-03-17T02:50:31.543Z,1009.24
2017-03-17T02:51:12.075Z,1009.23
2017-03-17T02:51:52.607Z,1009.23
2017-03-17T02:52:33.138Z,1009.23
2017-03-17T02:53:13.670Z,1009.24
2017-03-17T02:53:54.208Z,1009.22
2017-03-17T02:54:34.741Z,1009.23
2017-03-17T02:55:15.269Z,1009.26
2017-03-17T02:55:55.801Z,1009.34
2017-03-17T02:56:36.335Z,1009.34
2017-03-17T02:57:16.871Z,1009.33
2017-03-17T02:57:57.402Z,1009.35
2017-03-17T02:58:37.938Z,1009.34
2017-03-17T02:59:18.473Z,1009.3
2017-03-17T02:59:59.002Z,1009.35
2017-03-17T03:00:39.533Z,1009.35
2017-03-17T03:01:20.059Z,1009.32
2017-03-17T03:02:00.591Z,1009.35
2017-03-17T03:02:41.126Z,1009.36
2017-03-17T03:03:21.661Z,1009.34
2017-03-17T03:04:02.197Z,1009.3
2017-03-17T03:04:42.731Z,1009.31
2017-03-17T03:05:23.266Z,1009.3
2017-03-17T03:06:03.801Z,1009.31
2017-03-17T03:06:44.335Z,1009.31
2017-03-17T03:07:24.864Z,1009.28
2017-03-17T03:08:05.398Z,1009.28
2017-03-17T03:08:45.938Z,1009.26
2017-03-17T03:09:26.522Z,1009.22
2017-03-17T03:10:07.050Z,1009.23
2017-03-17T03:10:47.585Z,1009.21
2017-03-17T03:11:28.114Z,1009.22
2017-03-17T03:12:08.641Z,1009.25
2017-03-17T03:12:49.177Z,1009.28
2017-03-17T03:13:29.708Z,1009.33
2017-03-17T03:14:10.245Z,1009.34
2017-03-17T03:14:50.779Z,1009.37
2017-03-17T03:15:31.316Z,1009.39
2017-03-17T03:16:11.851Z,1009.41
2017-03-17T03:16:52.369Z,1009.4
2017-03-17T03:17:32.898Z,1009.37
2017-03-17T03:18:13.428Z,1009.43
2017-03-17T03:18:53.962Z,1009.45
2017-03-17T03:19:34.499Z,1009.45
2017-03-17T03:20:15.034Z,1009.43
2017-03-17T03:20:55.563Z,1009.47
2017-03-17T03:21:36.104Z,1009.47
2017-03-17T03:22:16.632Z,1009.42
2017-03-17T03:22:57.257Z,1009.47
2017-03-17T03:23:37.723Z,1009.44
2017-03-17T03:24:18.261Z,1009.46
2017-03-17T03:24:58.796Z,1009.47
2017-03-17T03:25:39.326Z,1009.44
2017-03-17T03:26:19.852Z,1009.43
2017-03-17T03:27:00.384Z,1009.46
2017-03-17T03:27:40.916Z,1009.48
2017-03-17T03:28:21.445Z,1009.5
2017-03-17T03:29:01.979Z,1009.52
2017-03-17T03:29:42.512Z,1009.54
2017-03-17T03:30:23.049Z,1009.49
2017-03-17T03:31:03.586Z,1009.46
2017-03-17T03:31:44.119Z,1009.5
2017-03-17T03:32:24.642Z,1009.49
2017-03-17T03:33:05.170Z,1009.52
2017-03-17T03:33:45.701Z,1009.54
2017-03-17T03:34:26.235Z,1009.44
2017-03-17T03:35:06.767Z,1009.46
2017-03-17T03:35:47.288Z,1009.49
2017-03-17T03:36:27.825Z,1009.46
2017-03-17T03:37:08.361Z,1009.5
2017-03-17T03:37:48.893Z,1009.46
2017-03-17T03:38:29.433Z,1009.51
2017-03-17T03:39:09.971Z,1009.48
2017-03-17T03:39:50.503Z,1009.47
2017-03-17T03:40:31.038Z,1009.48
2017-03-17T03:41:11.573Z,1009.45
2017-03-17T03:41:52.104Z,1009.44
2017-03-17T03:42:32.632Z,1009.48
2017-03-17T03:43:13.171Z,1009.46
2017-03-17T03:43:53.707Z,1009.46
2017-03-17T03:44:34.240Z,1009.47
2017-03-17T03:45:14.773Z,1009.47
2017-03-17T03:45:55.309Z,1009.45
2017-03-17T03:46:35.838Z,1009.5
2017-03-17T03:47:16.372Z,1009.51
2017-03-17T03:47:56.907Z,1009.5
2017-03-17T03:48:37.440Z,1009.49
2017-03-17T03:49:17.969Z,1009.49
2017-03-17T03:49:58.499Z,1009.51
2017-03-17T03:50:39.030Z,1009.49
2017-03-17T03:51:19.562Z,1009.5
2017-03-17T03:52:00.090Z,1009.52
2017-03-17T03:52:40.621Z,1009.52
2017-03-17T03:53:21.156Z,1009.53
2017-03-17T03:54:01.692Z,1009.58
2017-03-17T03:54:42.228Z,1009.62
2017-03-17T03:55:22.763Z,1009.61
2017-03-17T03:56:03.300Z,1009.63
2017-03-17T03:56:43.831Z,1009.63
2017-03-17T03:57:24.366Z,1009.61
2017-03-17T03:58:04.899Z,1009.58
2017-03-17T03:58:45.432Z,1009.59
2017-03-17T03:59:25.966Z,1009.61
2017-03-17T04:00:06.501Z,1009.61
2017-03-17T04:00:47.026Z,1009.58
2017-03-17T04:01:27.570Z,1009.59
2017-03-17T04:02:08.098Z,1009.57
2017-03-17T04:02:48.635Z,1009.56
2017-03-17T04:03:29.172Z,1009.6
2017-03-17T04:04:09.705Z,1009.58
2017-03-17T04:04:50.237Z,1009.57
2017-03-17T04:05:30.767Z,1009.58
2017-03-17T04:06:11.301Z,1009.59
2017-03-17T04:06:51.839Z,1009.62
2017-03-17T04:07:32.374Z,1009.6
2017-03-17T04:08:12.907Z,1009.64
2017-03-17T04:08:53.434Z,1009.64
2017-03-17T04:09:33.970Z,1009.66
2017-03-17T04:10:14.504Z,1009.68
2017-03-17T04:10:55.042Z,1009.67
2017-03-17T04:11:35.594Z,1009.68
2017-03-17T04:12:16.137Z,1009.68
2017-03-17T04:12:56.666Z,1009.7
2017-03-17T04:13:37.198Z,1009.67
2017-03-17T04:14:17.729Z,1009.69
2017-03-17T04:14:58.269Z,1009.68
2017-03-17T04:15:38.809Z,1009.67
2017-03-17T04:16:19.339Z,1009.64
2017-03-17T04:16:59.877Z,1009.68
2017-03-17T04:17:40.401Z,1009.66
2017-03-17T04:18:20.953Z,1009.66
2017-03-17T04:19:01.494Z,1009.66
2017-03-17T04:19:42.025Z,1009.64
2017-03-17T04:20:22.633Z,1009.62
2017-03-17T04:21:03.309Z,1009.6
2017-03-17T04:21:43.845Z,1009.62
2017-03-17T04:22:24.384Z,1009.57
2017-03-17T04:23:04.929Z,1009.54
2017-03-17T04:23:45.459Z,1009.57
2017-03-17T04:24:25.994Z,1009.54
2017-03-17T04:25:06.530Z,1009.5
2017-03-17T04:25:47.078Z,1009.52
2017-03-17T04:26:27.612Z,1009.56
2017-03-17T04:27:08.148Z,1009.53
2017-03-17T04:27:48.687Z,1009.5
2017-03-17T04:28:29.217Z,1009.47
2017-03-17T04:29:09.756Z,1009.47
2017-03-17T04:29:50.288Z,1009.43
2017-03-17T04:30:30.827Z,1009.4
2017-03-17T04:31:11.361Z,1009.41
2017-03-17T04:31:51.906Z,1009.41
2017-03-17T04:32:32.441Z,1009.49
2017-03-17T04:33:12.970Z,1009.5
2017-03-17T04:33:53.505Z,1009.49
2017-03-17T04:34:34.036Z,1009.51
2017-03-17T04:35:14.594Z,1009.49
2017-03-17T04:35:55.129Z,1009.45
2017-03-17T04:36:35.666Z,1009.5
2017-03-17T04:37:16.201Z,1009.52
2017-03-17T04:37:56.737Z,1009.52
2017-03-17T04:38:37.269Z,1009.53
2017-03-17T04:39:17.794Z,1009.54
2017-03-17T04:39:58.333Z,1009.52
2017-03-17T04:40:38.871Z,1009.49
2017-03-17T04:41:19.411Z,1009.48
2017-03-17T04:41:59.950Z,1009.45
2017-03-17T04:42:40.480Z,1009.45
2017-03-17T04:43:21.008Z,1009.46
2017-03-17T04:44:01.550Z,1009.46
2017-03-17T04:44:42.085Z,1009.5
2017-03-17T04:45:22.621Z,1009.51
2017-03-17T04:46:03.154Z,1009.54
2017-03-17T04:46:43.693Z,1009.48
2017-03-17T04:47:24.225Z,1009.49
2017-03-17T04:48:04.761Z,1009.53
2017-03-17T04:48:45.288Z,1009.53
2017-03-17T04:49:25.825Z,1009.53
2017-03-17T04:50:06.362Z,1009.56
2017-03-17T04:50:46.895Z,1009.56
2017-03-17T04:51:27.429Z,1009.55
2017-03-17T04:52:07.967Z,1009.6
2017-03-17T04:52:48.492Z,1009.57
2017-03-17T04:53:29.151Z,1009.54
2017-03-17T04:54:09.683Z,1009.54
2017-03-17T04:54:50.216Z,1009.54
2017-03-17T04:55:30.747Z,1009.6
2017-03-17T04:56:11.270Z,1009.55
2017-03-17T04:56:51.800Z,1009.55
2017-03-17T04:57:32.339Z,1009.55
2017-03-17T04:58:12.911Z,1009.53
2017-03-17T04:58:53.476Z,1009.48
2017-03-17T04:59:34.009Z,1009.5
2017-03-17T05:00:14.540Z,1009.49
2017-03-17T05:00:55.072Z,1009.5
2017-03-17T05:01:35.594Z,1009.47
2017-03-17T05:02:16.108Z,1009.47
2017-03-17T05:02:56.644Z,1009.52
2017-03-17T05:03:37.204Z,1009.52
2017-03-17T05:04:17.744Z,1009.47
2017-03-17T05:04:58.330Z,1009.47
2017-03-17T05:05:38.865Z,1009.5
2017-03-17T05:06:19.400Z,1009.46
2017-03-17T05:06:59.936Z,1009.46
2017-03-17T05:07:40.470Z,1009.43
2017-03-17T05:08:21.000Z,1009.46
2017-03-17T05:09:01.534Z,1009.45
2017-03-17T05:09:42.106Z,1009.47
2017-03-17T05:10:22.610Z,1009.45
2017-03-17T05:11:03.109Z,1009.42
2017-03-17T05:11:43.667Z,1009.41
2017-03-17T05:12:24.205Z,1009.45
2017-03-17T05:13:04.733Z,1009.44
2017-03-17T05:13:45.263Z,1009.45
2017-03-17T05:14:25.797Z,1009.45
2017-03-17T05:15:06.319Z,1009.43
2017-03-17T05:15:46.879Z,1009.45
2017-03-17T05:16:27.395Z,1009.47
2017-03-17T05:17:07.989Z,1009.48
2017-03-17T05:17:48.465Z,1009.44
2017-03-17T05:18:29.048Z,1009.49
2017-03-17T05:19:09.577Z,1009.48
2017-03-17T05:19:50.109Z,1009.5
2017-03-17T05:20:30.646Z,1009.52
2017-03-17T05:21:11.185Z,1009.53
2017-03-17T05:21:51.711Z,1009.51
2017-03-17T05:22:32.241Z,1009.55
2017-03-17T05:23:12.782Z,1009.54
2017-03-17T05:23:53.321Z,1009.53
2017-03-17T05:24:33.862Z,1009.55
2017-03-17T05:25:14.393Z,1009.51
2017-03-17T05:25:54.920Z,1009.53
2017-03-17T05:26:35.457Z,1009.55
2017-03-17T05:27:15.994Z,1009.55
2017-03-17T05:27:56.519Z,1009.57
2017-03-17T05:28:37.062Z,1009.58
2017-03-17T05:29:17.601Z,1009.61
2017-03-17T05:29:58.142Z,1009.57
2017-03-17T05:30:38.677Z,1009.56
2017-03-17T05:31:19.202Z,1009.57
2017-03-17T05:32:00.862Z,1009.58
2017-03-17T05:32:43.213Z,1009.59
2017-03-17T05:35:17.380Z,1009.58
2017-03-17T05:36:01.025Z,1009.56
2017-03-17T05:36:44.734Z,1009.6
2017-03-17T05:37:27.595Z,1009.63
2017-03-17T05:38:09.553Z,1009.63
2017-03-17T05:38:51.918Z,1009.62
2017-03-17T05:39:32.450Z,1009.67
2017-03-17T05:40:15.181Z,1009.7
2017-03-17T05:40:55.718Z,1009.66
2017-03-17T05:41:36.247Z,1009.66
2017-03-17T05:42:16.779Z,1009.68
2017-03-17T05:42:57.312Z,1009.67
2017-03-17T05:43:37.841Z,1009.68
2017-03-17T05:44:18.382Z,1009.65
2017-03-17T05:44:58.908Z,1009.65
2017-03-17T05:45:39.426Z,1009.61
2017-03-17T05:46:19.963Z,1009.61
2017-03-17T05:47:00.520Z,1009.61
2017-03-17T05:47:41.080Z,1009.63
2017-03-17T05:48:21.689Z,1009.58
2017-03-17T05:49:02.213Z,1009.64
2017-03-17T05:49:42.752Z,1009.66
2017-03-17T05:50:23.335Z,1009.66
2017-03-17T05:51:03.874Z,1009.67
2017-03-17T05:51:44.399Z,1009.71
2017-03-17T05:52:24.933Z,1009.7
2017-03-17T05:53:05.469Z,1009.76
2017-03-17T05:53:46.000Z,1009.75
2017-03-17T05:54:26.529Z,1009.78
2017-03-17T05:55:07.064Z,1009.78
2017-03-17T05:55:47.597Z,1009.77
2017-03-17T05:56:28.138Z,1009.75
2017-03-17T05:57:08.673Z,1009.79
2017-03-17T05:57:49.209Z,1009.77
2017-03-17T05:58:29.741Z,1009.76
2017-03-17T05:59:10.277Z,1009.75
2017-03-17T05:59:50.808Z,1009.79
2017-03-17T06:00:31.340Z,1009.76
2017-03-17T06:01:11.878Z,1009.76
2017-03-17T06:01:52.406Z,1009.75
2017-03-17T06:02:32.927Z,1009.73
2017-03-17T06:03:13.464Z,1009.74
2017-03-17T06:03:53.993Z,1009.69
2017-03-17T06:04:34.526Z,1009.67
2017-03-17T06:05:15.072Z,1009.71
2017-03-17T06:05:55.608Z,1009.7
2017-03-17T06:06:36.145Z,1009.69
2017-03-17T06:07:16.679Z,1009.65
2017-03-17T06:07:57.210Z,1009.67
2017-03-17T06:08:37.761Z,1009.72
2017-03-17T06:09:18.301Z,1009.76
2017-03-17T06:09:58.836Z,1009.74
2017-03-17T06:10:39.397Z,1009.77
2017-03-17T06:11:19.922Z,1009.76
2017-03-17T06:12:00.457Z,1009.76
2017-03-17T06:12:40.995Z,1009.77
2017-03-17T06:13:21.514Z,1009.82
2017-03-17T06:14:02.050Z,1009.79
2017-03-17T06:14:42.587Z,1009.8
2017-03-17T06:15:23.116Z,1009.83
2017-03-17T06:16:03.667Z,1009.79
2017-03-17T06:16:44.202Z,1009.84
2017-03-17T06:17:24.733Z,1009.86
2017-03-17T06:18:05.277Z,1009.84
2017-03-17T06:18:45.814Z,1009.9
2017-03-17T06:19:26.353Z,1009.94
2017-03-17T06:20:06.874Z,1009.85
2017-03-17T06:20:47.400Z,1009.83
2017-03-17T06:21:27.935Z,1009.81
2017-03-17T06:22:08.468Z,1009.87
2017-03-17T06:22:49.000Z,1009.82
2017-03-17T06:23:29.534Z,1009.86
2017-03-17T06:24:10.059Z,1009.82
2017-03-17T06:24:50.586Z,1009.8
2017-03-17T06:25:31.122Z,1009.8
2017-03-17T06:26:11.976Z,1009.8
2017-03-17T06:26:55.594Z,1009.77
2017-03-17T06:27:36.266Z,1009.82
2017-03-17T06:28:16.830Z,1009.79
2017-03-17T06:28:57.365Z,1009.78
2017-03-17T06:29:37.901Z,1009.77
2017-03-17T06:30:18.447Z,1009.88
2017-03-17T06:30:58.970Z,1009.86
2017-03-17T06:31:39.499Z,1009.86
2017-03-17T06:32:20.026Z,1009.88
2017-03-17T06:33:00.554Z,1009.91
2017-03-17T06:33:41.096Z,1009.89
2017-03-17T06:34:21.631Z,1009.86
2017-03-17T06:35:02.208Z,1009.86
2017-03-17T06:35:42.742Z,1009.84
2017-03-17T06:36:23.272Z,1009.83
2017-03-17T06:37:03.805Z,1009.83
2017-03-17T06:37:44.337Z,1009.85
2017-03-17T06:38:24.872Z,1009.82
2017-03-17T06:39:05.405Z,1009.86
2017-03-17T06:39:45.942Z,1009.89
2017-03-17T06:40:26.468Z,1009.9
2017-03-17T06:41:07.002Z,1009.92
2017-03-17T06:41:47.529Z,1009.89
2017-03-17T06:42:28.060Z,1009.94
2017-03-17T06:43:08.595Z,1009.88
2017-03-17T06:43:49.128Z,1009.93
2017-03-17T06:44:29.656Z,1009.96
2017-03-17T06:45:10.189Z,1009.96
2017-03-17T06:45:50.724Z,1009.97
2017-03-17T06:46:31.261Z,1009.94
2017-03-17T06:47:11.794Z,1009.97
2017-03-17T06:47:52.342Z,1009.96
2017-03-17T06:48:32.874Z,1009.99
2017-03-17T06:49:13.412Z,1010.02
2017-03-17T06:49:53.942Z,1010.02
2017-03-17T06:50:34.492Z,1010.04
2017-03-17T06:51:15.021Z,1010.01
2017-03-17T06:51:55.560Z,1010.02
2017-03-17T06:52:36.099Z,1010.03
2017-03-17T06:53:16.625Z,1010.03
2017-03-17T06:53:57.157Z,1010.07
2017-03-17T06:54:37.817Z,1010.05
2017-03-17T06:55:18.649Z,1010.08
2017-03-17T06:55:59.194Z,1010.06
2017-03-17T06:56:39.732Z,1010.06
2017-03-17T06:57:20.266Z,1010.13
2017-03-17T06:58:00.797Z,1010.14
2017-03-17T06:58:41.329Z,1010.15
2017-03-17T06:59:21.862Z,1010.17
2017-03-17T07:00:02.398Z,1010.2
2017-03-17T07:00:42.932Z,1010.17
2017-03-17T07:01:23.461Z,1010.2
2017-03-17T07:02:03.993Z,1010.21
2017-03-17T07:02:44.524Z,1010.17
2017-03-17T07:03:25.063Z,1010.19
2017-03-17T07:04:05.646Z,1010.17
2017-03-17T07:04:46.175Z,1010.21
2017-03-17T07:05:26.711Z,1010.18
2017-03-17T07:06:07.245Z,1010.22
2017-03-17T07:06:47.775Z,1010.22
2017-03-17T07:07:28.308Z,1010.2
2017-03-17T07:08:08.845Z,1010.24
2017-03-17T07:08:49.376Z,1010.2
2017-03-17T07:09:29.907Z,1010.22
2017-03-17T07:10:10.445Z,1010.31
2017-03-17T07:10:50.971Z,1010.35
2017-03-17T07:11:31.507Z,1010.37
2017-03-17T07:12:12.042Z,1010.33
2017-03-17T07:12:52.583Z,1010.34
2017-03-17T07:13:33.115Z,1010.37
2017-03-17T07:14:13.652Z,1010.3
2017-03-17T07:14:54.188Z,1010.38
2017-03-17T07:15:34.745Z,1010.34
2017-03-17T07:16:15.255Z,1010.36
2017-03-17T07:16:55.785Z,1010.34
2017-03-17T07:17:36.323Z,1010.44
2017-03-17T07:18:16.861Z,1010.45
2017-03-17T07:18:57.400Z,1010.46
2017-03-17T07:19:37.932Z,1010.48
2017-03-17T07:20:18.467Z,1010.45
2017-03-17T07:20:58.990Z,1010.5
2017-03-17T07:21:39.521Z,1010.45
2017-03-17T07:22:20.053Z,1010.45
2017-03-17T07:23:00.587Z,1010.49
2017-03-17T07:23:41.120Z,1010.46
2017-03-17T07:24:21.653Z,1010.47
2017-03-17T07:25:02.187Z,1010.53
2017-03-17T07:25:42.719Z,1010.52
2017-03-17T07:26:23.253Z,1010.51
2017-03-17T07:27:03.787Z,1010.52
2017-03-17T07:27:44.321Z,1010.51
2017-03-17T07:28:24.853Z,1010.54
2017-03-17T07:29:05.383Z,1010.5
2017-03-17T07:29:45.920Z,1010.51
2017-03-17T07:30:26.452Z,1010.54
2017-03-17T07:31:06.986Z,1010.49
2017-03-17T07:31:47.521Z,1010.51
2017-03-17T07:32:28.055Z,1010.51
2017-03-17T07:33:08.581Z,1010.5
2017-03-17T07:33:49.121Z,1010.52
2017-03-17T07:34:29.657Z,1010.56
2017-03-17T07:35:10.193Z,1010.55
2017-03-17T07:35:50.721Z,1010.52
2017-03-17T07:36:31.256Z,1010.53
2017-03-17T07:37:11.786Z,1010.57
2017-03-17T07:37:52.319Z,1010.53
2017-03-17T07:38:32.877Z,1010.55
2017-03-17T07:39:13.383Z,1010.56
2017-03-17T07:39:53.914Z,1010.54
2017-03-17T07:40:34.447Z,1010.51
2017-03-17T07:41:14.976Z,1010.51
2017-03-17T07:41:55.511Z,1010.55
2017-03-17T07:42:36.047Z,1010.6
2017-03-17T07:43:16.572Z,1010.58
2017-03-17T07:43:57.102Z,1010.58
2017-03-17T07:44:37.640Z,1010.6
2017-03-17T07:45:18.174Z,1010.74
2017-03-17T07:45:58.710Z,1010.66
2017-03-17T07:46:39.244Z,1010.61
2017-03-17T07:47:19.774Z,1010.63
2017-03-17T07:48:00.295Z,1010.67
2017-03-17T07:48:40.840Z,1010.65
2017-03-17T07:49:21.384Z,1010.69
2017-03-17T07:50:01.920Z,1010.68
2017-03-17T07:50:42.451Z,1010.65
2017-03-17T07:51:22.985Z,1010.77
2017-03-17T07:52:03.522Z,1010.7
2017-03-17T07:52:44.056Z,1010.72
2017-03-17T07:53:24.585Z,1010.74
2017-03-17T07:54:05.116Z,1010.7
2017-03-17T07:54:45.651Z,1010.74
2017-03-17T07:55:26.185Z,1010.77
2017-03-17T07:56:06.718Z,1010.76
2017-03-17T07:56:47.249Z,1010.76
2017-03-17T07:57:27.782Z,1010.79
2017-03-17T07:58:08.319Z,1010.76
2017-03-17T07:58:48.842Z,1010.74
2017-03-17T07:59:29.378Z,1010.71
2017-03-17T08:00:09.902Z,1010.72
2017-03-17T08:00:50.426Z,1010.63
2017-03-17T08:01:30.969Z,1010.62
2017-03-17T08:02:11.502Z,1010.56
2017-03-17T08:02:52.033Z,1010.56
2017-03-17T08:03:32.565Z,1010.49
2017-03-17T08:04:13.093Z,1010.44
2017-03-17T08:04:53.628Z,1010.42
2017-03-17T08:05:34.164Z,1010.45
2017-03-17T08:06:14.699Z,1010.48
2017-03-17T08:06:55.235Z,1010.46
2017-03-17T08:07:35.768Z,1010.4
2017-03-17T08:08:16.302Z,1010.38
2017-03-17T08:08:56.835Z,1010.36
2017-03-17T08:09:37.375Z,1010.35
2017-03-17T08:10:17.903Z,1010.33
2017-03-17T08:10:58.436Z,1010.31
2017-03-17T08:11:38.970Z,1010.28
2017-03-17T08:12:19.508Z,1010.22
2017-03-17T08:13:00.041Z,1010.32
2017-03-17T08:13:40.577Z,1010.26
2017-03-17T08:14:21.115Z,1010.26